Time;durP1;ratioP1;P1;durP2;ratioP2;P2;SDS_P1;SDS_P2;PMS_P1;PMS_P2;Temp;Humidity;BMP_temperature;BMP_pressure;BME280_temperature;BME280_humidity;BME280_pressure;Samples;Min_cycle;Max_cycle;Signal;HPM_P1;HPM_P2
2022/11/08 00:01:43;;;;;;;24.65;3.55;;;11.80;99.90;;;;;;5029030;28;20564;-87
2022/11/08 00:04:10;;;;;;;21.70;2.85;;;11.90;99.90;;;;;;5024911;28;20025;-87
2022/11/08 00:14:50;;;;;;;12.50;2.97;;;12.00;99.90;;;;;;5031100;28;20039;-87
2022/11/08 00:17:17;;;;;;;15.90;3.55;;;12.00;99.90;;;;;;5034011;28;20022;-86
2022/11/08 00:19:43;;;;;;;17.85;3.50;;;12.00;99.90;;;;;;5029070;28;20501;-88
2022/11/08 00:22:10;;;;;;;14.35;3.25;;;12.00;99.90;;;;;;5023047;28;20026;-87
2022/11/08 00:24:36;;;;;;;14.70;2.92;;;12.10;99.90;;;;;;5030208;28;20037;-87
2022/11/08 00:27:07;;;;;;;11.63;2.65;;;12.10;99.90;;;;;;5028678;28;20463;-89
2022/11/08 00:29:37;;;;;;;11.98;3.03;;;12.10;99.90;;;;;;5022456;28;20393;-87
2022/11/08 00:32:04;;;;;;;19.75;3.78;;;12.10;99.90;;;;;;5033790;28;20052;-89
2022/11/08 00:34:31;;;;;;;8.23;2.33;;;12.10;99.90;;;;;;5032596;28;20424;-90
2022/11/08 00:36:56;;;;;;;12.95;3.45;;;12.10;99.90;;;;;;5020827;28;20038;-89
2022/11/08 00:39:22;;;;;;;13.65;2.75;;;12.00;99.90;;;;;;5039234;28;20501;-86
2022/11/08 00:41:47;;;;;;;13.52;2.97;;;12.10;99.90;;;;;;5034281;28;20091;-90
2022/11/08 00:44:13;;;;;;;11.38;2.40;;;12.10;99.90;;;;;;5027542;28;20037;-88
2022/11/08 00:46:40;;;;;;;11.60;2.47;;;12.00;99.90;;;;;;5028612;28;20398;-87
2022/11/08 00:49:05;;;;;;;13.45;2.47;;;12.00;99.90;;;;;;5028532;28;20096;-85
2022/11/08 00:51:31;;;;;;;11.55;2.45;;;12.00;99.90;;;;;;5026803;28;20160;-88
2022/11/08 00:53:57;;;;;;;27.67;3.20;;;12.00;99.90;;;;;;5026804;28;20026;-89
2022/11/08 00:56:23;;;;;;;10.35;2.67;;;11.90;99.90;;;;;;5024718;28;20639;-87
2022/11/08 00:58:49;;;;;;;10.73;3.35;;;12.00;99.90;;;;;;5042453;28;20513;-88
2022/11/08 01:01:17;;;;;;;9.23;2.67;;;11.90;99.90;;;;;;5048819;28;20017;-88
2022/11/08 01:03:43;;;;;;;10.00;2.25;;;11.90;99.90;;;;;;5050551;28;20039;-88
2022/11/08 01:06:11;;;;;;;18.67;4.10;;;11.80;99.90;;;;;;5049130;28;20029;-89
2022/11/08 01:08:37;;;;;;;16.60;4.10;;;11.80;99.90;;;;;;5046834;28;20025;-87
2022/11/08 01:11:06;;;;;;;13.50;2.47;;;11.80;99.90;;;;;;5051146;28;20526;-87
2022/11/08 01:13:33;;;;;;;17.40;3.50;;;11.80;99.90;;;;;;5046325;28;20068;-88
2022/11/08 01:16:24;;;;;;;18.25;3.85;;;11.70;99.90;;;;;;5054191;28;20021;-89
2022/11/08 01:18:52;;;;;;;14.55;3.60;;;11.70;99.90;;;;;;5049858;28;20140;-86
2022/11/08 01:21:19;;;;;;;14.23;4.03;;;11.70;99.90;;;;;;5049608;28;20021;-88
2022/11/08 01:23:45;;;;;;;12.93;2.83;;;11.70;99.90;;;;;;5054692;28;20032;-87
2022/11/08 01:26:16;;;;;;;13.75;3.03;;;11.70;99.90;;;;;;5050453;28;20035;-88
2022/11/08 01:28:42;;;;;;;13.20;2.95;;;11.70;99.90;;;;;;5050527;28;20033;-90
2022/11/08 01:31:11;;;;;;;9.35;2.67;;;11.60;99.90;;;;;;5045000;28;20154;-85
2022/11/08 01:33:37;;;;;;;19.27;3.22;;;11.70;99.90;;;;;;5050531;28;20083;-84
2022/11/08 01:36:08;;;;;;;20.17;3.90;;;11.60;99.90;;;;;;5053270;28;20052;-87
2022/11/08 01:38:34;;;;;;;13.93;3.05;;;11.60;99.90;;;;;;5038772;28;20116;-88
2022/11/08 01:41:02;;;;;;;9.45;3.50;;;11.70;99.90;;;;;;5051632;28;20167;-86
2022/11/08 01:43:36;;;;;;;13.93;3.05;;;11.70;99.90;;;;;;5042776;28;20029;-89
2022/11/08 01:46:40;;;;;;;17.88;2.75;;;11.70;99.90;;;;;;5044175;28;20682;-87
2022/11/08 01:49:23;;;;;;;11.68;2.70;;;11.70;99.90;;;;;;5050644;28;20074;-85
2022/11/08 01:51:58;;;;;;;7.97;3.08;;;11.70;99.90;;;;;;5046834;28;20128;-88
2022/11/08 01:54:27;;;;;;;20.38;3.28;;;11.70;99.90;;;;;;5055199;28;20041;-86
2022/11/08 01:56:55;;;;;;;12.65;3.30;;;11.80;99.90;;;;;;5050821;28;20037;-87
2022/11/08 01:59:20;;;;;;;12.57;2.85;;;11.80;99.90;;;;;;5040468;28;20153;-87
2022/11/08 02:01:46;;;;;;;13.98;3.13;;;11.70;99.90;;;;;;5045193;28;20112;-87
2022/11/08 02:04:14;;;;;;;12.45;3.35;;;11.70;99.90;;;;;;5040702;28;20380;-87
2022/11/08 02:06:41;;;;;;;12.55;3.15;;;11.70;99.90;;;;;;5041435;28;20075;-88
2022/11/08 02:09:09;;;;;;;14.25;3.25;;;11.70;99.90;;;;;;5037759;28;20025;-85
2022/11/08 02:11:35;;;;;;;10.10;2.67;;;11.80;99.90;;;;;;5041106;28;20724;-88
2022/11/08 02:14:03;;;;;;;9.02;2.08;;;11.80;99.90;;;;;;5040888;28;20111;-88
2022/11/08 02:16:28;;;;;;;16.00;3.42;;;11.90;99.90;;;;;;5046763;28;20104;-91
2022/11/08 02:18:54;;;;;;;15.85;4.00;;;11.90;99.90;;;;;;5036666;28;20529;-86
2022/11/08 02:21:48;;;;;;;9.18;3.42;;;11.90;99.90;;;;;;5040909;28;20072;-92
2022/11/08 02:24:14;;;;;;;12.18;2.80;;;11.90;99.90;;;;;;5039226;28;20026;-90
2022/11/08 02:26:40;;;;;;;17.10;4.60;;;11.90;99.90;;;;;;5044236;28;20050;-87
2022/11/08 02:29:41;;;;;;;14.27;2.83;;;11.90;99.90;;;;;;5035010;28;20127;-87
2022/11/08 02:32:08;;;;;;;22.00;3.33;;;11.90;99.90;;;;;;5016237;28;20132;-88
2022/11/08 02:34:36;;;;;;;16.08;3.35;;;12.00;99.90;;;;;;5050667;28;20094;-88
2022/11/08 02:37:04;;;;;;;12.05;3.45;;;11.90;99.90;;;;;;5034162;28;20025;-90
2022/11/08 02:39:31;;;;;;;12.27;2.90;;;12.00;99.90;;;;;;5034594;28;20111;-87
2022/11/08 02:41:57;;;;;;;10.13;2.80;;;11.90;99.90;;;;;;5036585;28;20034;-88
2022/11/08 02:44:23;;;;;;;28.48;5.45;;;11.90;99.90;;;;;;5046725;28;20094;-86
2022/11/08 02:46:48;;;;;;;11.77;2.90;;;11.90;99.90;;;;;;5035865;28;20481;-89
2022/11/08 02:49:14;;;;;;;11.13;2.60;;;11.80;99.90;;;;;;5044065;28;20021;-86
2022/11/08 02:51:39;;;;;;;11.25;3.28;;;11.90;99.90;;;;;;5046101;28;20037;-87
2022/11/08 02:54:05;;;;;;;14.23;3.28;;;11.80;99.90;;;;;;5060026;28;20162;-87
2022/11/08 02:56:31;;;;;;;7.70;2.78;;;11.90;99.90;;;;;;5041722;28;20028;-83
2022/11/08 02:58:57;;;;;;;12.50;2.58;;;11.80;99.90;;;;;;5050492;28;20053;-82
2022/11/08 03:01:23;;;;;;;15.07;2.80;;;11.80;99.90;;;;;;5053536;28;20033;-87
2022/11/08 03:03:48;;;;;;;12.95;3.58;;;11.90;99.90;;;;;;5037172;28;20029;-87
2022/11/08 03:06:14;;;;;;;13.15;2.63;;;11.90;99.90;;;;;;5045727;28;20037;-86
2022/11/08 03:08:40;;;;;;;12.15;2.85;;;11.90;99.90;;;;;;5042119;28;20048;-87
2022/11/08 03:11:05;;;;;;;12.07;2.53;;;11.90;99.90;;;;;;5045724;28;20079;-88
2022/11/08 03:13:32;;;;;;;9.70;2.75;;;11.90;99.90;;;;;;5040603;28;20486;-82
2022/11/08 03:16:01;;;;;;;13.23;2.72;;;11.90;99.90;;;;;;5044811;28;20084;-85
2022/11/08 03:18:27;;;;;;;8.82;2.47;;;11.90;99.90;;;;;;5042620;28;20033;-87
2022/11/08 03:20:52;;;;;;;11.55;3.47;;;11.90;99.90;;;;;;5043440;28;20059;-88
2022/11/08 03:23:19;;;;;;;8.10;2.85;;;11.80;99.90;;;;;;5038040;28;20060;-88
2022/11/08 03:25:45;;;;;;;6.90;2.42;;;11.80;99.90;;;;;;5039696;28;20529;-87
2022/11/08 03:28:10;;;;;;;6.35;2.20;;;11.80;99.90;;;;;;5046162;28;20040;-87
2022/11/08 03:30:36;;;;;;;12.48;2.63;;;11.80;99.90;;;;;;5050172;28;20139;-86
2022/11/08 03:33:02;;;;;;;8.43;2.75;;;11.70;99.90;;;;;;5040255;28;20443;-87
2022/11/08 03:35:28;;;;;;;11.30;2.75;;;11.70;99.90;;;;;;5043303;28;20029;-88
2022/11/08 03:37:56;;;;;;;10.65;2.80;;;11.70;99.90;;;;;;5034616;28;20034;-86
2022/11/08 03:40:23;;;;;;;5.95;2.40;;;11.70;99.90;;;;;;5041174;28;20037;-86
2022/11/08 03:42:48;;;;;;;8.95;2.25;;;11.60;99.90;;;;;;5040878;28;20435;-87
2022/11/08 03:45:15;;;;;;;13.55;3.17;;;11.50;99.90;;;;;;5046510;28;20021;-87
2022/11/08 03:47:45;;;;;;;11.38;2.50;;;11.50;99.90;;;;;;5042528;28;20079;-87
2022/11/08 03:50:13;;;;;;;7.28;2.42;;;11.30;99.90;;;;;;5040093;28;20386;-86
2022/11/08 03:52:43;;;;;;;17.08;4.90;;;11.30;99.90;;;;;;5043371;28;20413;-87
2022/11/08 03:55:10;;;;;;;14.55;3.15;;;11.20;99.90;;;;;;5043332;28;20021;-84
2022/11/08 03:57:36;;;;;;;14.07;3.00;;;11.20;99.90;;;;;;5049094;28;20044;-87
2022/11/08 04:00:04;;;;;;;9.35;2.92;;;11.20;99.90;;;;;;5036870;28;20061;-83
2022/11/08 04:02:29;;;;;;;13.65;3.72;;;11.20;99.90;;;;;;5029156;28;20029;-87
2022/11/08 04:04:55;;;;;;;18.48;3.53;;;11.20;99.90;;;;;;5044712;28;20017;-88
2022/11/08 04:07:21;;;;;;;12.30;3.42;;;11.20;99.90;;;;;;5044339;28;20025;-86
2022/11/08 04:09:47;;;;;;;8.82;2.83;;;11.20;99.90;;;;;;5047861;28;20051;-82
2022/11/08 04:15:15;;;;;;;20.75;3.50;;;11.20;99.90;;;;;;5042105;28;20036;-87
2022/11/08 04:23:16;;;;;;;10.52;3.88;;;11.00;99.90;;;;;;5049474;28;20086;-87
2022/11/08 04:25:43;;;;;;;11.23;2.92;;;11.00;99.90;;;;;;5051176;28;20056;-87
2022/11/08 04:28:09;;;;;;;16.90;3.08;;;10.90;99.90;;;;;;5040854;28;20035;-86
2022/11/08 04:30:35;;;;;;;12.48;3.10;;;10.90;99.90;;;;;;5049059;28;20063;-87
2022/11/08 04:33:03;;;;;;;11.85;3.38;;;10.90;99.90;;;;;;5051264;28;20479;-87
2022/11/08 04:35:30;;;;;;;15.70;2.80;;;10.90;99.90;;;;;;5046232;28;20041;-87
2022/11/08 04:37:58;;;;;;;7.68;2.33;;;10.80;99.90;;;;;;5048696;28;20104;-87
2022/11/08 04:40:24;;;;;;;11.23;3.17;;;10.80;99.90;;;;;;5044507;28;20017;-88
2022/11/08 04:42:50;;;;;;;5.28;2.28;;;10.70;99.90;;;;;;5044085;28;20078;-86
2022/11/08 04:45:16;;;;;;;12.15;2.83;;;10.70;99.90;;;;;;5047122;28;20112;-87
2022/11/08 04:47:45;;;;;;;7.70;2.50;;;10.60;99.90;;;;;;5045509;28;20029;-88
2022/11/08 04:50:11;;;;;;;8.15;2.38;;;10.60;99.90;;;;;;5043713;28;20080;-88
2022/11/08 04:52:40;;;;;;;6.40;2.42;;;10.60;99.90;;;;;;5044695;28;20581;-82
2022/11/08 04:55:07;;;;;;;9.80;2.97;;;10.50;99.90;;;;;;5044937;28;20032;-86
2022/11/08 04:57:33;;;;;;;5.18;2.35;;;10.50;99.90;;;;;;5044994;28;20106;-89
2022/11/08 04:59:58;;;;;;;7.60;1.95;;;10.40;99.90;;;;;;5048370;28;20029;-88
2022/11/08 05:02:24;;;;;;;5.38;2.28;;;10.40;99.90;;;;;;5050944;28;20055;-88
2022/11/08 05:04:49;;;;;;;8.90;2.42;;;10.30;99.90;;;;;;5044198;28;20053;-87
2022/11/08 05:07:15;;;;;;;9.10;2.33;;;10.20;99.90;;;;;;5038419;28;20029;-88
2022/11/08 05:09:41;;;;;;;10.02;2.30;;;10.00;99.90;;;;;;5037052;28;20112;-88
2022/11/08 05:12:06;;;;;;;13.38;2.45;;;9.90;99.90;;;;;;5043970;28;20166;-88
2022/11/08 05:14:32;;;;;;;11.15;2.80;;;9.80;99.90;;;;;;5046688;28;20029;-88
2022/11/08 05:16:58;;;;;;;9.57;2.58;;;9.80;99.90;;;;;;5054713;28;20032;-88
2022/11/08 05:24:53;;;;;;;10.77;2.70;;;9.70;99.90;;;;;;5052879;28;20072;-87
2022/11/08 05:27:19;;;;;;;10.18;2.85;;;9.70;99.90;;;;;;5053493;28;20402;-89
2022/11/08 05:29:44;;;;;;;12.25;2.88;;;9.70;99.90;;;;;;5057471;28;20029;-84
2022/11/08 05:32:10;;;;;;;10.48;2.90;;;9.90;99.90;;;;;;5046543;28;20037;-87
2022/11/08 05:34:36;;;;;;;7.80;2.65;;;10.10;99.90;;;;;;5046207;28;20102;-86
2022/11/08 05:37:02;;;;;;;9.23;2.65;;;10.10;99.90;;;;;;5049898;28;20067;-88
2022/11/08 05:39:28;;;;;;;13.25;3.25;;;10.20;99.90;;;;;;5051476;28;20393;-89
2022/11/08 05:41:53;;;;;;;10.68;2.97;;;10.20;99.90;;;;;;5033271;28;20059;-88
2022/11/08 05:44:19;;;;;;;11.32;2.88;;;10.20;99.90;;;;;;5043232;28;20619;-87
2022/11/08 05:46:44;;;;;;;6.78;2.25;;;10.20;99.90;;;;;;5035715;28;20148;-84
2022/11/08 05:49:10;;;;;;;5.13;1.95;;;10.20;99.90;;;;;;5044337;28;20671;-88
2022/11/08 05:51:35;;;;;;;10.73;2.58;;;10.10;99.90;;;;;;5056933;28;20048;-88
2022/11/08 05:54:01;;;;;;;8.40;2.60;;;10.00;99.90;;;;;;5053662;28;20034;-88
2022/11/08 05:56:27;;;;;;;17.08;2.88;;;10.00;99.90;;;;;;5042610;28;20029;-88
2022/11/08 05:58:52;;;;;;;6.72;2.65;;;9.90;99.90;;;;;;5046646;28;20041;-87
2022/11/08 06:01:19;;;;;;;9.82;2.53;;;9.90;99.90;;;;;;5042813;28;20029;-87
2022/11/08 06:03:46;;;;;;;10.80;2.58;;;9.90;99.90;;;;;;5045538;28;20132;-88
2022/11/08 06:06:17;;;;;;;6.95;2.58;;;10.00;99.90;;;;;;5038799;28;20112;-82
2022/11/08 06:08:43;;;;;;;12.15;3.30;;;10.00;99.90;;;;;;5031966;28;20030;-87
2022/11/08 06:11:12;;;;;;;15.95;2.95;;;10.10;99.90;;;;;;5046966;28;20039;-87
2022/11/08 06:13:38;;;;;;;10.70;3.00;;;10.00;99.90;;;;;;5044867;28;20041;-87
2022/11/08 06:16:15;;;;;;;7.93;2.40;;;10.10;99.90;;;;;;5031643;28;20477;-86
2022/11/08 06:18:41;;;;;;;11.70;2.78;;;10.10;99.90;;;;;;5032010;28;20036;-86
2022/11/08 06:21:10;;;;;;;10.25;2.42;;;10.10;99.90;;;;;;5030107;28;20033;-87
2022/11/08 06:23:35;;;;;;;7.65;2.33;;;10.10;99.90;;;;;;5018679;28;20021;-89
2022/11/08 06:26:22;;;;;;;11.10;2.38;;;10.10;99.90;;;;;;5038989;28;20036;-90
2022/11/08 06:28:48;;;;;;;6.72;2.25;;;10.10;99.90;;;;;;5044922;28;20439;-89
2022/11/08 06:31:14;;;;;;;12.00;2.80;;;10.00;99.90;;;;;;5044955;28;20025;-89
2022/11/08 06:33:39;;;;;;;5.07;1.90;;;10.00;99.90;;;;;;5040313;28;20041;-89
2022/11/08 06:36:06;;;;;;;8.43;2.15;;;10.00;99.90;;;;;;5041053;28;20029;-86
2022/11/08 06:38:32;;;;;;;8.90;2.22;;;9.90;99.90;;;;;;5037804;28;20457;-91
2022/11/08 06:40:59;;;;;;;12.38;2.83;;;9.90;99.90;;;;;;5032670;28;20064;-90
2022/11/08 06:43:24;;;;;;;8.95;2.08;;;9.80;99.90;;;;;;5039971;28;20473;-89
2022/11/08 06:45:50;;;;;;;4.75;2.10;;;9.80;99.90;;;;;;5043824;28;20035;-89
2022/11/08 06:48:15;;;;;;;11.98;3.47;;;9.80;99.90;;;;;;5038303;28;20021;-89
2022/11/08 06:50:42;;;;;;;8.40;2.20;;;9.70;99.90;;;;;;5036261;28;20066;-88
2022/11/08 06:53:10;;;;;;;7.53;2.40;;;9.70;99.90;;;;;;5044552;28;20080;-84
2022/11/08 06:55:35;;;;;;;10.00;2.13;;;9.70;99.90;;;;;;5038260;28;20064;-85
2022/11/08 06:58:02;;;;;;;8.52;2.58;;;9.70;99.90;;;;;;5041395;28;20196;-89
2022/11/08 07:00:28;;;;;;;10.85;2.88;;;9.70;99.90;;;;;;5040118;28;20112;-89
2022/11/08 07:02:55;;;;;;;8.55;2.53;;;9.80;99.90;;;;;;5040732;28;20439;-89
2022/11/08 07:05:22;;;;;;;7.70;2.47;;;9.80;99.90;;;;;;5029140;28;20502;-90
2022/11/08 07:07:50;;;;;;;17.75;2.83;;;9.90;99.90;;;;;;5038667;28;20032;-89
2022/11/08 07:10:18;;;;;;;8.27;2.80;;;9.90;99.90;;;;;;5040625;28;20031;-90
2022/11/08 07:12:43;;;;;;;10.02;2.75;;;10.00;99.90;;;;;;5045864;28;20090;-89
2022/11/08 07:15:09;;;;;;;8.75;2.75;;;10.00;99.90;;;;;;5043705;28;20311;-90
2022/11/08 07:17:35;;;;;;;17.30;2.55;;;10.10;99.90;;;;;;5038427;28;20124;-89
2022/11/08 07:20:00;;;;;;;16.98;3.42;;;10.10;99.90;;;;;;5040410;28;20031;-90
2022/11/08 07:22:26;;;;;;;12.48;2.65;;;10.20;99.90;;;;;;5034657;28;20525;-90
2022/11/08 07:24:52;;;;;;;13.77;3.00;;;10.20;99.90;;;;;;5036643;28;20040;-85
2022/11/08 07:27:17;;;;;;;9.60;3.17;;;10.30;99.90;;;;;;5038167;28;20049;-89
2022/11/08 07:29:43;;;;;;;5.78;2.08;;;10.30;99.90;;;;;;5023505;28;20079;-89
2022/11/08 07:32:08;;;;;;;13.73;3.50;;;10.40;99.90;;;;;;5040371;28;20068;-89
2022/11/08 07:34:35;;;;;;;13.82;2.85;;;10.40;99.90;;;;;;5031907;28;20025;-90
2022/11/08 07:37:00;;;;;;;8.98;2.67;;;10.50;99.90;;;;;;5042451;28;20076;-88
2022/11/08 07:39:26;;;;;;;13.73;3.05;;;10.50;99.90;;;;;;5038890;28;20533;-89
2022/11/08 07:41:51;;;;;;;10.77;2.45;;;10.50;99.90;;;;;;5037804;28;20120;-86
2022/11/08 07:44:17;;;;;;;6.47;2.78;;;10.60;99.90;;;;;;5044519;28;20029;-90
2022/11/08 07:46:43;;;;;;;11.00;3.35;;;10.60;99.90;;;;;;5043380;28;20026;-89
2022/11/08 07:49:08;;;;;;;11.82;2.42;;;10.60;99.90;;;;;;5044476;28;20083;-89
2022/11/08 07:51:34;;;;;;;10.35;2.90;;;10.60;99.90;;;;;;5040744;28;20185;-90
2022/11/08 07:54:00;;;;;;;8.60;2.78;;;10.70;99.90;;;;;;5050178;28;20167;-89
2022/11/08 07:56:25;;;;;;;10.70;2.58;;;10.70;99.90;;;;;;5047889;28;20028;-88
2022/11/08 07:58:52;;;;;;;9.50;2.70;;;10.70;99.90;;;;;;5043125;28;20479;-88
2022/11/08 08:01:17;;;;;;;11.20;3.05;;;10.80;99.90;;;;;;5048535;28;20029;-89
2022/11/08 08:03:43;;;;;;;11.00;2.28;;;10.80;99.90;;;;;;5046302;28;20056;-88
2022/11/08 08:06:09;;;;;;;10.07;2.65;;;10.90;99.90;;;;;;5039863;28;20060;-89
2022/11/08 08:08:35;;;;;;;13.85;2.72;;;10.80;99.90;;;;;;5040117;28;20035;-88
2022/11/08 08:11:02;;;;;;;10.35;2.88;;;10.90;99.90;;;;;;5050536;28;20461;-89
2022/11/08 08:13:28;;;;;;;8.90;2.58;;;10.90;99.90;;;;;;5045052;28;20037;-89
2022/11/08 08:15:59;;;;;;;7.07;2.35;;;10.90;99.90;;;;;;5046235;28;20021;-89
2022/11/08 08:18:25;;;;;;;7.45;2.83;;;10.90;99.90;;;;;;5041993;28;20288;-88
2022/11/08 08:20:50;;;;;;;15.77;3.25;;;10.90;99.90;;;;;;5053244;28;20433;-88
2022/11/08 08:23:16;;;;;;;11.27;3.20;;;11.00;99.90;;;;;;5043752;28;20017;-88
2022/11/08 08:25:41;;;;;;;11.98;2.80;;;11.00;99.90;;;;;;5053537;28;20053;-88
2022/11/08 08:28:09;;;;;;;13.18;2.08;;;11.00;99.90;;;;;;5047801;28;20664;-88
2022/11/08 08:30:35;;;;;;;8.02;2.47;;;11.00;99.90;;;;;;5042300;28;20035;-89
2022/11/08 08:33:13;;;;;;;13.30;2.45;;;11.00;99.90;;;;;;5043215;28;20053;-88
2022/11/08 08:35:39;;;;;;;5.13;2.42;;;11.00;99.90;;;;;;5043604;28;20033;-89
2022/11/08 08:38:05;;;;;;;19.40;3.28;;;11.00;99.90;;;;;;5044458;28;20060;-89
2022/11/08 08:40:32;;;;;;;13.80;2.67;;;11.00;99.90;;;;;;5049406;28;20040;-89
2022/11/08 08:42:59;;;;;;;11.02;2.53;;;11.10;99.90;;;;;;5044135;28;20474;-89
2022/11/08 08:45:26;;;;;;;8.18;2.88;;;11.10;99.90;;;;;;5045772;28;20036;-88
2022/11/08 08:47:53;;;;;;;9.10;2.25;;;11.10;99.90;;;;;;5047649;28;20378;-84
2022/11/08 08:50:19;;;;;;;8.95;2.70;;;11.10;99.90;;;;;;5040882;28;20018;-89
2022/11/08 08:52:45;;;;;;;9.63;2.53;;;11.10;99.90;;;;;;5040180;28;20558;-89
2022/11/08 08:55:11;;;;;;;6.43;2.05;;;11.20;99.90;;;;;;5039985;28;20028;-89
2022/11/08 08:57:37;;;;;;;12.48;3.00;;;11.20;99.90;;;;;;5036304;28;20123;-88
2022/11/08 09:00:03;;;;;;;7.68;2.25;;;11.20;99.90;;;;;;5029489;28;20025;-85
2022/11/08 09:02:29;;;;;;;7.32;2.97;;;11.30;99.90;;;;;;5033253;28;20040;-89
2022/11/08 09:04:55;;;;;;;8.68;3.40;;;11.30;99.90;;;;;;5037774;28;20516;-89
2022/11/08 09:07:21;;;;;;;8.00;3.17;;;11.40;99.90;;;;;;5038114;28;20158;-87
2022/11/08 09:09:46;;;;;;;10.43;3.13;;;11.40;99.90;;;;;;5030304;28;20028;-88
2022/11/08 09:12:12;;;;;;;9.43;2.35;;;11.50;99.90;;;;;;5034259;28;20045;-88
2022/11/08 09:14:38;;;;;;;7.65;2.38;;;11.50;99.90;;;;;;5032267;28;20121;-87
2022/11/08 09:17:03;;;;;;;14.38;2.30;;;11.70;99.90;;;;;;5030507;28;20037;-89
2022/11/08 09:19:29;;;;;;;6.35;2.35;;;11.70;99.90;;;;;;5036891;28;20397;-88
2022/11/08 09:21:54;;;;;;;12.82;2.60;;;11.90;99.90;;;;;;5049556;28;20503;-87
2022/11/08 09:24:20;;;;;;;10.18;2.35;;;12.00;99.90;;;;;;5045754;28;20417;-87
2022/11/08 09:26:49;;;;;;;12.10;2.30;;;12.10;99.90;;;;;;5036031;28;20090;-88
2022/11/08 09:29:14;;;;;;;7.63;1.83;;;12.20;99.90;;;;;;5049186;28;20059;-88
2022/11/08 09:31:40;;;;;;;6.68;2.10;;;12.20;99.90;;;;;;5047033;28;20044;-87
2022/11/08 09:34:05;;;;;;;3.63;1.73;;;12.40;99.90;;;;;;5041056;28;20016;-87
2022/11/08 09:36:31;;;;;;;6.32;2.08;;;12.50;99.90;;;;;;5036301;28;20029;-90
2022/11/08 09:39:00;;;;;;;5.95;1.73;;;12.60;99.90;;;;;;5048919;28;20032;-83
2022/11/08 09:42:00;;;;;;;5.55;1.63;;;12.70;99.90;;;;;;5039006;28;20117;-87
2022/11/08 09:44:28;;;;;;;4.68;1.20;;;12.80;99.90;;;;;;5040994;28;20049;-87
2022/11/08 09:47:01;;;;;;;4.95;1.50;;;12.80;99.90;;;;;;5046497;28;20051;-87
2022/11/08 09:49:34;;;;;;;8.85;2.00;;;12.90;99.90;;;;;;5038876;28;20033;-84
2022/11/08 09:52:03;;;;;;;5.13;1.65;;;13.00;99.90;;;;;;5037360;28;20050;-87
2022/11/08 09:54:37;;;;;;;5.07;1.20;;;13.10;99.90;;;;;;5036320;28;20052;-85
2022/11/08 09:57:05;;;;;;;4.97;1.50;;;13.20;99.90;;;;;;5036739;28;20028;-88
2022/11/08 09:59:45;;;;;;;6.95;1.48;;;13.30;99.90;;;;;;5044570;28;20033;-88
2022/11/08 10:02:22;;;;;;;6.47;1.35;;;13.40;99.90;;;;;;5048629;28;20485;-86
2022/11/08 10:04:55;;;;;;;7.10;1.67;;;13.60;99.90;;;;;;5031242;28;20044;-85
2022/11/08 10:07:23;;;;;;;4.13;1.38;;;13.80;99.90;;;;;;5047367;28;20112;-83
2022/11/08 10:10:17;;;;;;;6.78;1.77;;;13.90;99.90;;;;;;5047311;28;20064;-87
2022/11/08 10:12:48;;;;;;;7.72;1.80;;;14.00;99.90;;;;;;5046781;28;20032;-84
2022/11/08 10:15:41;;;;;;;6.95;1.58;;;14.10;99.90;;;;;;5040463;28;20020;-86
2022/11/08 10:18:28;;;;;;;4.93;1.38;;;14.10;99.90;;;;;;5037557;28;20037;-85
2022/11/08 10:21:21;;;;;;;6.15;1.23;;;14.20;99.90;;;;;;5044652;28;20473;-86
2022/11/08 10:24:03;;;;;;;4.03;1.20;;;14.30;99.90;;;;;;5043985;28;20029;-87
2022/11/08 10:26:37;;;;;;;5.03;1.40;;;14.40;99.90;;;;;;5035169;28;20076;-84
2022/11/08 10:29:18;;;;;;;3.75;1.65;;;14.40;99.90;;;;;;5048850;28;20033;-87
2022/11/08 10:31:46;;;;;;;6.18;1.25;;;14.40;99.90;;;;;;5036436;28;20040;-85
2022/11/08 10:34:22;;;;;;;1.98;1.10;;;14.40;99.90;;;;;;5034318;28;20048;-86
2022/11/08 10:36:53;;;;;;;5.10;1.77;;;14.40;99.90;;;;;;5050852;28;20029;-86
2022/11/08 10:39:47;;;;;;;3.13;1.23;;;14.50;99.90;;;;;;5047098;28;20107;-86
2022/11/08 10:42:18;;;;;;;12.77;1.65;;;14.60;99.90;;;;;;5043207;28;20029;-88
2022/11/08 10:44:44;;;;;;;2.40;1.17;;;14.70;99.90;;;;;;5035396;28;20431;-86
2022/11/08 10:47:27;;;;;;;2.50;0.95;;;14.80;99.90;;;;;;5030926;28;20022;-85
2022/11/08 10:49:54;;;;;;;5.18;1.58;;;14.70;99.90;;;;;;5039399;28;20043;-88
2022/11/08 10:52:33;;;;;;;7.53;2.10;;;14.80;99.90;;;;;;5039360;28;20481;-87
2022/11/08 10:55:00;;;;;;;3.08;1.30;;;14.70;99.90;;;;;;5043763;28;20112;-87
2022/11/08 10:57:42;;;;;;;8.35;1.45;;;14.80;99.90;;;;;;5034559;28;20053;-89
2022/11/08 11:00:26;;;;;;;4.82;1.25;;;14.70;99.90;;;;;;5019659;28;20075;-88
2022/11/08 11:03:09;;;;;;;8.05;1.75;;;14.70;99.90;;;;;;5014299;28;20030;-82
2022/11/08 11:05:39;;;;;;;5.57;1.48;;;14.70;99.90;;;;;;5021345;28;20045;-89
2022/11/08 11:08:08;;;;;;;3.55;1.40;;;14.60;99.90;;;;;;5023250;28;20052;-89
2022/11/08 11:10:42;;;;;;;4.95;1.67;;;14.70;99.90;;;;;;5026207;28;20033;-90
2022/11/08 11:13:23;;;;;;;12.90;1.83;;;14.70;99.90;;;;;;5027617;28;20064;-87
2022/11/08 11:15:55;;;;;;;5.28;1.92;;;14.70;99.90;;;;;;5023295;28;20262;-85
2022/11/08 11:18:26;;;;;;;5.95;1.63;;;14.70;99.90;;;;;;5026821;28;20108;-88
2022/11/08 11:21:16;;;;;;;4.72;1.63;;;14.70;99.90;;;;;;5017825;28;20037;-83
2022/11/08 11:23:52;;;;;;;1.98;1.13;;;14.70;99.90;;;;;;5019373;28;20056;-88
2022/11/08 11:26:30;;;;;;;5.97;1.73;;;14.70;99.90;;;;;;5026610;28;20026;-91
2022/11/08 11:29:07;;;;;;;11.98;1.83;;;14.70;99.90;;;;;;5021595;28;20025;-93
2022/11/08 11:31:36;;;;;;;4.38;1.45;;;14.70;99.90;;;;;;5021077;28;20415;-83
2022/11/08 11:34:17;;;;;;;4.78;1.40;;;14.80;99.90;;;;;;5026474;28;20042;-90
2022/11/08 11:36:52;;;;;;;5.03;1.63;;;14.80;99.90;;;;;;5015776;28;20041;-92
2022/11/08 11:39:44;;;;;;;3.90;1.20;;;14.70;99.90;;;;;;5009952;28;20063;-92
2022/11/08 11:42:25;;;;;;;6.65;1.42;;;14.80;99.90;;;;;;5018225;28;20029;-90
2022/11/08 11:45:12;;;;;;;4.75;1.58;;;14.90;99.90;;;;;;5032792;28;20029;-86
2022/11/08 11:47:53;;;;;;;5.43;1.20;;;15.00;99.90;;;;;;5022898;28;20067;-86
2022/11/08 11:50:38;;;;;;;4.47;1.20;;;15.10;99.90;;;;;;5026364;28;20112;-85
2022/11/08 11:53:10;;;;;;;5.32;2.13;;;15.00;99.90;;;;;;5021282;28;20041;-90
2022/11/08 11:56:02;;;;;;;6.03;1.73;;;15.10;99.90;;;;;;5029411;28;20096;-91
2022/11/08 11:58:53;;;;;;;3.65;0.98;;;15.10;99.90;;;;;;5041329;28;20084;-89
2022/11/08 12:01:34;;;;;;;9.23;1.65;;;15.20;99.90;;;;;;5041670;28;20501;-87
2022/11/08 12:04:37;;;;;;;3.65;1.25;;;15.30;99.90;;;;;;5046534;28;20056;-88
2022/11/08 12:07:11;;;;;;;7.05;1.30;;;15.40;99.90;;;;;;5046102;28;22769;-88
2022/11/08 12:10:01;;;;;;;4.63;1.50;;;15.30;99.90;;;;;;5044485;28;20025;-81
2022/11/08 12:12:41;;;;;;;6.32;1.77;;;15.30;99.90;;;;;;5047797;28;20040;-85
2022/11/08 12:15:31;;;;;;;4.75;1.52;;;15.40;99.90;;;;;;5037496;28;20459;-83
2022/11/08 12:18:06;;;;;;;7.30;1.83;;;15.60;99.90;;;;;;5044942;28;20453;-85
2022/11/08 12:20:35;;;;;;;4.23;2.03;;;15.60;99.90;;;;;;5048164;28;20040;-86
2022/11/08 12:23:39;;;;;;;6.28;1.55;;;15.60;99.90;;;;;;5048903;28;20056;-85
2022/11/08 12:26:07;;;;;;;3.65;1.25;;;15.80;99.90;;;;;;5023216;28;20037;-88
2022/11/08 12:28:49;;;;;;;5.65;1.00;;;15.90;99.90;;;;;;5028188;28;20061;-83
2022/11/08 12:31:18;;;;;;;5.82;1.42;;;15.90;99.90;;;;;;5048227;28;20057;-87
2022/11/08 12:34:13;;;;;;;5.00;1.42;;;16.10;99.90;;;;;;5047518;28;20102;-90
2022/11/08 12:36:56;;;;;;;3.92;1.33;;;16.10;99.90;;;;;;5012426;28;20048;-92
2022/11/08 12:39:53;;;;;;;3.90;1.50;;;16.30;99.90;;;;;;5042810;28;20053;-88
2022/11/08 12:42:36;;;;;;;4.75;1.13;;;16.30;99.90;;;;;;5049084;28;20039;-92
2022/11/08 12:45:34;;;;;;;4.13;1.95;;;16.30;99.90;;;;;;5043627;28;20028;-89
2022/11/08 12:48:11;;;;;;;1.20;1.00;;;16.30;99.90;;;;;;5054425;28;20099;-91
2022/11/08 12:51:05;;;;;;;4.75;1.30;;;16.40;99.90;;;;;;5055111;28;20064;-89
2022/11/08 12:54:00;;;;;;;3.80;1.27;;;16.40;99.90;;;;;;5034582;28;20269;-88
2022/11/08 12:56:44;;;;;;;2.42;1.20;;;16.40;99.90;;;;;;5048783;28;20074;-90
2022/11/08 12:59:24;;;;;;;12.60;2.38;;;16.50;99.90;;;;;;5039562;28;20052;-85
2022/11/08 13:01:51;;;;;;;6.93;1.20;;;16.40;99.90;;;;;;5051682;28;20059;-89
2022/11/08 13:04:34;;;;;;;3.40;1.15;;;16.30;99.90;;;;;;5044227;28;20021;-88
2022/11/08 13:07:24;;;;;;;4.10;1.27;;;16.30;99.90;;;;;;5040808;28;20540;-87
2022/11/08 13:10:11;;;;;;;8.00;1.30;;;16.30;99.90;;;;;;5043688;28;20017;-87
2022/11/08 13:12:47;;;;;;;2.85;1.40;;;16.30;99.90;;;;;;5034726;28;20367;-82
2022/11/08 13:15:19;;;;;;;4.15;1.75;;;16.30;99.90;;;;;;5036133;28;20378;-90
2022/11/08 13:18:15;;;;;;;3.35;1.33;;;16.40;99.90;;;;;;5048782;28;20024;-88
2022/11/08 13:20:40;;;;;;;4.63;1.50;;;16.30;99.90;;;;;;5043663;28;20051;-91
2022/11/08 13:23:11;;;;;;;6.28;1.40;;;16.30;99.90;;;;;;5035412;28;20117;-89